Time;durP1;ratioP1;P1;durP2;ratioP2;P2;SDS_P1;SDS_P2;PMS_P1;PMS_P2;Temp;Humidity;BMP_temperature;BMP_pressure;BME280_temperature;BME280_humidity;BME280_pressure;Samples;Min_cycle;Max_cycle;Signal;HPM_P1;HPM_P2
2022/12/25 00:00:33;;;;;;;6.40;4.33;;;;;;;-141.97;77.47;47834.31;5055593;28;20243;-81
2022/12/25 00:02:58;;;;;;;6.27;4.20;;;;;;;-141.97;77.18;47834.31;5070712;28;20170;-82
2022/12/25 00:05:24;;;;;;;6.97;4.10;;;;;;;-141.97;76.98;47830.47;5073586;28;20181;-81
2022/12/25 00:07:49;;;;;;;6.87;4.00;;;;;;;-141.97;76.27;47838.16;5061642;28;20180;-81
2022/12/25 00:10:15;;;;;;;6.90;3.90;;;;;;;-141.97;76.33;47826.63;5059486;28;20273;-81
2022/12/25 00:12:40;;;;;;;6.77;4.10;;;;;;;-141.97;76.77;47888.13;5054354;28;20158;-81
2022/12/25 00:15:06;;;;;;;3.67;2.60;;;;;;;-141.97;75.67;47824.69;5053424;28;20218;-81
2022/12/25 00:17:32;;;;;;;7.73;3.33;;;;;;;-141.97;74.75;47801.63;5055291;28;20244;-81
2022/12/25 00:19:58;;;;;;;6.07;3.47;;;;;;;-141.97;74.00;47926.56;5061370;28;20191;-81
2022/12/25 00:22:23;;;;;;;3.77;2.60;;;;;;;-141.97;73.25;47838.16;5067918;28;20174;-81
2022/12/25 00:24:48;;;;;;;6.63;3.30;;;;;;;-141.97;73.04;47807.41;5058632;28;20529;-81
2022/12/25 00:27:15;;;;;;;4.97;2.93;;;;;;;-141.97;72.50;47820.84;5055257;28;20189;-81
2022/12/25 00:29:40;;;;;;;5.93;3.27;;;;;;;-141.97;72.49;47818.94;5052983;28;20528;-81
2022/12/25 00:32:06;;;;;;;4.23;3.10;;;;;;;-141.97;72.67;47738.19;5054515;28;20636;-81
2022/12/25 00:34:31;;;;;;;5.97;3.03;;;;;;;-141.97;72.81;47799.72;5043452;28;20185;-81
2022/12/25 00:36:57;;;;;;;5.93;3.20;;;;;;;-141.97;72.77;47811.25;5030297;28;20230;-81
2022/12/25 00:39:22;;;;;;;4.47;2.80;;;;;;;-141.97;72.55;47907.34;5032081;28;20642;-82
2022/12/25 00:44:31;;;;;;;5.70;2.80;;;;;;;-141.97;72.07;47857.38;5033738;28;20188;-81
2022/12/25 00:46:57;;;;;;;4.83;2.93;;;;;;;-141.97;72.24;47815.09;5032969;28;20170;-81
2022/12/25 00:49:22;;;;;;;6.30;3.07;;;;;;;-141.97;72.50;47828.53;5032403;28;20217;-81
2022/12/25 00:51:51;;;;;;;6.10;3.60;;;;;;;-141.97;72.67;47822.78;5032302;28;20160;-81
2022/12/25 00:54:17;;;;;;;5.33;2.50;;;;;;;-141.97;72.44;47822.78;5032174;28;20606;-81
2022/12/25 00:56:43;;;;;;;5.93;3.50;;;;;;;-141.97;73.01;47836.22;5032552;28;20173;-81
2022/12/25 00:59:09;;;;;;;4.63;3.10;;;;;;;-141.97;73.45;47805.47;5032483;28;20557;-81
2022/12/25 01:01:34;;;;;;;4.57;2.83;;;;;;;-141.97;73.55;47822.78;5032563;28;20190;-81
2022/12/25 01:04:00;;;;;;;6.70;3.50;;;;;;;-141.97;73.50;47809.31;5032416;28;20642;-81
2022/12/25 01:06:26;;;;;;;3.93;2.17;;;;;;;-141.97;74.05;47830.47;5047324;28;20200;-81
2022/12/25 01:11:36;;;;;;;6.70;3.17;;;;;;;-141.97;74.43;47820.84;5031928;28;20216;-81
2022/12/25 01:14:01;;;;;;;5.20;3.33;;;;;;;-141.97;74.69;47811.25;5031887;28;20189;-81
2022/12/25 01:16:27;;;;;;;5.80;3.60;;;;;;;-141.97;74.68;47857.38;5031451;28;20197;-81
2022/12/25 01:18:53;;;;;;;5.73;3.27;;;;;;;-141.97;74.54;47822.78;5031755;28;20472;-81
2022/12/25 01:21:20;;;;;;;6.03;3.40;;;;;;;-141.97;74.69;47830.47;5031790;28;20646;-81
2022/12/25 01:23:46;;;;;;;6.00;3.60;;;;;;;-141.97;74.78;47842.00;5031788;28;20162;-82
2022/12/25 01:26:13;;;;;;;7.10;3.77;;;;;;;-141.97;74.43;47920.81;5031136;28;20184;-81
2022/12/25 01:28:39;;;;;;;8.30;3.90;;;;;;;-141.97;74.75;47805.47;5031634;28;20166;-81
2022/12/25 01:31:08;;;;;;;6.70;2.90;;;;;;;-141.97;75.27;47807.41;5031568;28;20633;-81
2022/12/25 01:33:34;;;;;;;5.07;3.10;;;;;;;-141.97;75.60;47820.84;5031700;28;20170;-81
2022/12/25 01:35:59;;;;;;;5.77;3.33;;;;;;;-141.97;76.25;47809.31;5031523;28;20170;-81
2022/12/25 01:38:25;;;;;;;4.60;2.90;;;;;;;-141.97;75.85;47930.41;5031483;28;20241;-81
2022/12/25 01:40:50;;;;;;;4.73;3.00;;;;;;;-141.97;75.62;47838.16;5031067;28;20190;-81
2022/12/25 01:43:28;;;;;;;4.67;3.13;;;;;;;-141.97;75.82;47826.63;5031414;28;20249;-81
2022/12/25 01:45:54;;;;;;;5.60;3.20;;;;;;;-141.97;75.99;47849.69;5031227;28;20161;-81
2022/12/25 01:48:28;;;;;;;6.80;3.50;;;;;;;-141.97;76.63;47782.41;5030817;28;20216;-81
2022/12/25 01:50:57;;;;;;;5.20;2.97;;;;;;;-141.97;77.31;47876.59;5031277;28;20158;-81
2022/12/25 01:53:24;;;;;;;8.63;3.90;;;;;;;-141.97;77.82;47838.16;5011157;28;20177;-81
2022/12/25 01:55:55;;;;;;;6.27;3.80;;;;;;;-141.97;78.51;47811.25;5012597;28;20561;-81
2022/12/25 01:58:20;;;;;;;6.97;3.53;;;;;;;-141.97;78.87;47842.00;5014694;28;20253;-81
2022/12/25 02:00:46;;;;;;;8.07;4.23;;;;;;;-141.97;79.44;47830.47;5013000;28;20231;-81
2022/12/25 02:03:12;;;;;;;7.67;3.50;;;;;;;-141.97;79.94;47807.41;5011827;28;20174;-82
2022/12/25 02:05:38;;;;;;;5.87;3.43;;;;;;;-141.97;79.47;47866.97;5012765;28;20619;-81
2022/12/25 02:08:10;;;;;;;5.57;3.40;;;;;;;-141.97;79.38;47826.63;5014704;28;20166;-82
2022/12/25 02:10:37;;;;;;;6.63;3.40;;;;;;;-141.97;79.36;47805.47;5011285;28;20186;-81
2022/12/25 02:13:04;;;;;;;6.47;3.93;;;;;;;-141.97;78.22;47838.16;5011571;28;20155;-82
2022/12/25 02:15:45;;;;;;;6.53;3.83;;;;;;;-141.97;78.46;47861.22;5011599;28;20167;-81
2022/12/25 02:18:28;;;;;;;6.27;3.30;;;;;;;-141.97;77.79;47888.13;5012302;28;20240;-81
2022/12/25 02:21:20;;;;;;;6.90;4.40;;;;;;;-141.97;77.88;47840.06;5013236;28;20242;-81
2022/12/25 02:24:06;;;;;;;7.30;3.30;;;;;;;-141.97;77.42;47809.31;5015361;28;20234;-81
2022/12/25 02:26:55;;;;;;;6.47;4.23;;;;;;;-141.97;77.35;47834.31;5015159;28;20170;-81
2022/12/25 02:29:55;;;;;;;5.57;3.30;;;;;;;-141.97;76.99;47842.00;5015405;28;20191;-81
2022/12/25 02:32:23;;;;;;;6.93;3.97;;;;;;;-141.97;76.48;47865.06;5030329;28;20623;-81
2022/12/25 02:34:51;;;;;;;8.40;4.17;;;;;;;-141.97;76.57;47849.69;5015468;28;20166;-81
2022/12/25 02:37:27;;;;;;;8.40;3.73;;;;;;;-141.97;76.67;47838.16;5014824;28;20313;-81
2022/12/25 02:40:01;;;;;;;8.97;4.27;;;;;;;-141.97;75.62;47811.25;5014790;28;20238;-81
2022/12/25 03:07:28;;;;;;;8.27;4.90;;;;;;;-141.97;76.08;47838.16;5034586;28;20223;-81
2022/12/25 03:12:52;;;;;;;8.27;4.80;;;;;;;-141.97;76.94;47788.19;5039654;28;20212;-81
2022/12/25 03:18:08;;;;;;;25.57;13.90;;;;;;;-141.97;77.03;47817.00;5033686;28;20173;-81
2022/12/25 03:28:53;;;;;;;1635.10;603.73;;;;;;;-141.97;79.48;47838.16;5033780;28;20260;-82
2022/12/25 03:31:33;;;;;;;682.33;259.93;;;;;;;-141.97;80.99;47809.31;5034136;28;20166;-81
2022/12/25 04:37:52;;;;;;;36.63;19.20;;;;;;;-141.97;85.04;47824.69;5033191;28;20282;-81
2022/12/25 04:40:17;;;;;;;40.93;20.53;;;;;;;-141.97;85.22;47853.53;5032186;28;20170;-81
2022/12/25 04:42:43;;;;;;;39.70;19.67;;;;;;;-141.97;84.88;47822.78;5031785;28;20173;-82
2022/12/25 04:45:09;;;;;;;76.77;36.17;;;;;;;-141.97;85.03;47834.31;5032370;28;20224;-81
2022/12/25 04:47:35;;;;;;;40.47;20.37;;;;;;;-141.97;85.38;47853.53;5032230;28;20180;-81
2022/12/25 04:50:00;;;;;;;57.80;27.17;;;;;;;-141.97;85.50;47799.72;5031740;28;20210;-81
2022/12/25 04:52:26;;;;;;;33.23;16.00;;;;;;;-141.97;85.17;47876.59;5032347;28;20197;-82
2022/12/25 04:54:51;;;;;;;16.43;9.13;;;;;;;-141.97;85.74;47818.94;5032086;28;20185;-81
2022/12/25 04:57:16;;;;;;;28.27;14.70;;;;;;;-141.97;85.05;47818.94;5031673;28;20205;-82
2022/12/25 04:59:42;;;;;;;21.83;12.30;;;;;;;-141.97;85.46;47905.44;5031754;28;20207;-81
2022/12/25 05:02:08;;;;;;;17.23;9.47;;;;;;;-141.97;85.82;47817.00;5031897;28;20276;-81
2022/12/25 05:04:33;;;;;;;19.50;10.37;;;;;;;-141.97;86.27;47834.31;5031708;28;20610;-81
2022/12/25 05:06:59;;;;;;;18.70;10.90;;;;;;;-141.97;85.80;47834.31;5031275;28;20249;-81
2022/12/25 05:09:25;;;;;;;41.53;21.20;;;;;;;-141.97;85.22;47890.06;5032121;28;20154;-82
2022/12/25 05:11:51;;;;;;;32.97;18.17;;;;;;;-141.97;85.65;47793.94;5031696;28;20170;-82
2022/12/25 05:14:17;;;;;;;28.07;14.17;;;;;;;-141.97;86.23;47849.69;5031325;28;20236;-80
2022/12/25 05:16:42;;;;;;;30.00;15.63;;;;;;;-141.97;86.97;47868.91;5031394;28;20616;-81
2022/12/25 05:19:08;;;;;;;20.97;10.90;;;;;;;-141.97;85.95;47807.41;5031347;28;20224;-81
2022/12/25 05:21:34;;;;;;;19.40;8.73;;;;;;;-141.97;85.93;47836.22;5031444;28;20190;-82
2022/12/25 05:23:59;;;;;;;19.03;10.50;;;;;;;-141.97;85.93;47842.00;5031707;28;20253;-80
2022/12/25 05:26:26;;;;;;;18.20;10.73;;;;;;;-141.97;85.86;47836.22;5031249;28;20603;-80
2022/12/25 05:28:52;;;;;;;20.40;11.60;;;;;;;-141.97;85.97;47863.13;5031424;28;20170;-80
2022/12/25 05:31:18;;;;;;;46.00;25.40;;;;;;;-141.97;86.14;47842.00;5031227;28;20200;-80
2022/12/25 05:33:44;;;;;;;54.27;28.67;;;;;;;-141.97;86.34;47838.16;5031058;28;20174;-80
2022/12/25 05:36:11;;;;;;;47.63;24.80;;;;;;;-141.97;86.89;47799.72;5031024;28;20169;-80
2022/12/25 05:38:37;;;;;;;37.90;20.83;;;;;;;-141.97;86.61;47795.88;5031411;28;20228;-81
2022/12/25 05:41:03;;;;;;;30.00;16.87;;;;;;;-141.97;86.40;47855.44;5035196;28;20244;-81
2022/12/25 05:43:29;;;;;;;20.40;10.57;;;;;;;-141.97;86.54;47824.69;5033346;28;20257;-80
2022/12/25 05:45:55;;;;;;;22.83;11.63;;;;;;;-141.97;86.18;47811.25;5031470;28;20177;-80
2022/12/25 05:48:20;;;;;;;18.03;9.77;;;;;;;-141.97;85.62;47805.47;5046502;28;20224;-80
2022/12/25 05:50:46;;;;;;;25.90;13.53;;;;;;;-141.97;85.05;47824.69;5013711;28;20172;-80
2022/12/25 05:53:13;;;;;;;33.70;17.80;;;;;;;-141.97;85.21;47893.91;5030894;28;20249;-81
2022/12/25 05:55:42;;;;;;;26.73;14.50;;;;;;;-141.97;85.13;47834.31;5032752;28;20641;-81
2022/12/25 05:58:09;;;;;;;25.23;13.43;;;;;;;-141.97;85.28;47849.69;5035249;28;20168;-81
2022/12/25 06:00:36;;;;;;;27.57;14.40;;;;;;;-141.97;85.53;47861.22;5035316;28;20220;-81
2022/12/25 06:03:01;;;;;;;29.73;16.07;;;;;;;-141.97;85.56;47861.22;5034668;28;20185;-81
2022/12/25 06:05:27;;;;;;;128.83;74.17;;;;;;;-141.97;84.72;47836.22;5036434;28;20173;-80
2022/12/25 06:07:52;;;;;;;110.40;56.33;;;;;;;-141.97;85.62;47824.69;5036777;28;20173;-81
2022/12/25 06:10:17;;;;;;;111.47;57.83;;;;;;;-141.97;86.03;47820.84;5035142;28;20240;-81
2022/12/25 06:12:43;;;;;;;81.90;41.43;;;;;;;-141.97;85.74;47830.47;5035159;28;20249;-79
2022/12/25 06:15:09;;;;;;;52.47;27.73;;;;;;;-141.97;86.73;47842.00;5034968;28;20257;-81
2022/12/25 06:17:34;;;;;;;27.03;13.83;;;;;;;-141.97;86.83;47845.84;5035180;28;20657;-79
2022/12/25 06:20:00;;;;;;;18.87;9.93;;;;;;;-141.97;87.44;47843.91;5034982;28;20185;-79
2022/12/25 06:22:30;;;;;;;17.07;9.00;;;;;;;-141.97;87.44;47853.53;5034448;28;20281;-81
2022/12/25 06:24:55;;;;;;;21.13;12.77;;;;;;;-141.97;87.07;47822.78;5034678;28;20228;-81
2022/12/25 06:27:20;;;;;;;22.13;13.17;;;;;;;-141.97;86.29;47849.69;5034673;28;20166;-81
2022/12/25 06:29:46;;;;;;;22.27;12.27;;;;;;;-141.97;83.10;47838.16;5034462;28;20166;-81
2022/12/25 06:32:11;;;;;;;38.33;20.10;;;;;;;-141.97;81.08;47851.59;5034632;28;20193;-80
2022/12/25 06:34:36;;;;;;;44.90;23.37;;;;;;;-141.97;78.28;47849.69;5034352;28;20174;-80
2022/12/25 06:37:02;;;;;;;21.87;12.03;;;;;;;-141.97;77.08;47845.84;5034914;28;20650;-80
2022/12/25 06:39:27;;;;;;;39.13;19.23;;;;;;;-141.97;76.30;47868.91;5034330;28;20169;-81
2022/12/25 06:41:53;;;;;;;23.00;12.40;;;;;;;-141.97;76.51;47857.38;5034226;28;20645;-80
2022/12/25 06:44:20;;;;;;;26.37;12.93;;;;;;;-141.97;76.64;47884.28;5034210;28;20166;-80
2022/12/25 06:46:45;;;;;;;25.20;12.77;;;;;;;-141.97;78.45;47865.06;5034323;28;20189;-80
2022/12/25 06:49:10;;;;;;;23.03;12.83;;;;;;;-141.97;79.11;47832.38;5031931;28;20209;-80
2022/12/25 06:51:36;;;;;;;26.40;13.00;;;;;;;-141.97;79.44;47874.69;5033264;28;20657;-81
2022/12/25 06:54:02;;;;;;;20.67;12.00;;;;;;;-141.97;79.63;47830.47;5035649;28;20182;-81
2022/12/25 06:56:29;;;;;;;24.27;13.40;;;;;;;-141.97;79.74;47851.59;5035947;28;20259;-81
2022/12/25 06:59:02;;;;;;;14.70;8.73;;;;;;;-141.97;73.19;47793.94;5006666;28;20542;-81
2022/12/25 07:01:40;;;;;;;14.37;8.67;;;;;;;-141.97;66.65;47803.56;5012904;28;20203;-81
2022/12/25 07:04:13;;;;;;;15.00;8.93;;;;;;;-141.97;64.29;47840.06;5019917;28;20263;-81
2022/12/25 07:06:38;;;;;;;14.83;7.60;;;;;;;-141.97;62.95;47828.53;5032813;28;20257;-80
2022/12/25 07:09:03;;;;;;;14.47;8.60;;;;;;;-141.97;62.92;47842.00;5035651;28;20190;-80
2022/12/25 07:11:29;;;;;;;12.43;7.00;;;;;;;-141.97;62.32;47811.25;5051977;28;20169;-80
2022/12/25 07:13:55;;;;;;;13.27;7.20;;;;;;;-141.97;62.85;47795.88;5047903;28;20170;-81
2022/12/25 07:16:21;;;;;;;12.63;7.33;;;;;;;-141.97;63.07;47832.38;5043686;28;20200;-80
2022/12/25 07:18:47;;;;;;;23.57;12.53;;;;;;;-141.97;62.26;47859.28;5037038;28;20639;-79
2022/12/25 07:21:15;;;;;;;21.27;12.73;;;;;;;-141.97;61.33;47792.03;5033811;28;20214;-81
2022/12/25 07:23:41;;;;;;;20.23;11.57;;;;;;;-141.97;60.25;47849.69;5021180;28;20296;-81
2022/12/25 07:26:09;;;;;;;17.03;10.10;;;;;;;-141.97;58.73;47795.88;5036653;28;20249;-82
2022/12/25 07:28:34;;;;;;;17.37;9.80;;;;;;;-141.97;61.12;47803.56;5054051;28;20184;-82
2022/12/25 07:31:02;;;;;;;12.87;7.67;;;;;;;-141.97;62.30;47805.47;5050355;28;20162;-82
2022/12/25 07:33:27;;;;;;;19.03;9.47;;;;;;;-141.97;64.64;47838.16;5043305;28;20850;-82
2022/12/25 07:35:53;;;;;;;20.23;10.17;;;;;;;-141.97;67.34;47842.00;5036208;28;20661;-81
2022/12/25 07:38:18;;;;;;;12.40;7.07;;;;;;;-141.97;68.32;47824.69;5032658;28;20248;-82
2022/12/25 07:40:45;;;;;;;15.20;8.43;;;;;;;-141.97;69.44;47845.84;5035276;28;20197;-82
2022/12/25 07:43:10;;;;;;;16.00;7.97;;;;;;;-141.97;69.56;47842.00;5035512;28;20591;-82
2022/12/25 07:45:36;;;;;;;18.43;10.80;;;;;;;-141.97;69.01;47818.94;5044907;28;20180;-81
2022/12/25 07:48:01;;;;;;;23.17;13.13;;;;;;;-141.97;68.89;47797.78;5050066;28;20587;-82
2022/12/25 07:50:26;;;;;;;22.00;14.17;;;;;;;-141.97;68.59;47817.00;5033418;28;20172;-81
2022/12/25 07:52:52;;;;;;;18.83;10.03;;;;;;;-141.97;68.73;47830.47;5032904;28;20202;-81
2022/12/25 07:55:17;;;;;;;15.80;9.37;;;;;;;-141.97;68.77;47811.25;5023294;28;20252;-81
2022/12/25 07:57:42;;;;;;;17.57;9.30;;;;;;;-141.97;67.98;47818.94;5030705;28;20224;-81
2022/12/25 08:00:08;;;;;;;26.33;14.50;;;;;;;-141.97;68.25;47790.09;5030076;28;20186;-81
2022/12/25 08:02:34;;;;;;;38.33;19.40;;;;;;;-141.97;67.52;47817.00;5023934;28;20359;-81
2022/12/25 08:04:59;;;;;;;34.23;15.60;;;;;;;-141.97;67.55;47803.56;5019708;28;20182;-82
2022/12/25 08:07:26;;;;;;;23.87;11.20;;;;;;;-141.97;67.65;47790.09;5032932;28;20170;-82
2022/12/25 08:09:51;;;;;;;13.67;7.57;;;;;;;-141.97;68.27;47822.78;5018388;28;20194;-81
2022/12/25 08:12:17;;;;;;;19.83;10.33;;;;;;;-141.97;68.22;47818.94;5040498;28;20158;-82
2022/12/25 08:14:42;;;;;;;20.20;8.47;;;;;;;-141.97;68.26;47788.19;5033053;28;20178;-82
2022/12/25 08:17:07;;;;;;;22.70;9.27;;;;;;;-141.97;67.82;47749.72;5033047;28;20180;-82
2022/12/25 08:19:33;;;;;;;11.53;6.73;;;;;;;-141.97;68.48;47797.78;5031737;28;20168;-82
2022/12/25 08:21:59;;;;;;;9.73;5.67;;;;;;;-141.97;68.08;47813.16;5032873;28;20248;-81
2022/12/25 08:24:24;;;;;;;7.37;4.47;;;;;;;-141.97;67.52;47849.69;5032503;28;20220;-82
2022/12/25 08:26:49;;;;;;;9.23;4.60;;;;;;;-141.97;68.01;47842.00;5032735;28;20172;-81
2022/12/25 08:29:15;;;;;;;8.63;4.50;;;;;;;-141.97;67.86;47807.41;5025918;28;20576;-81
2022/12/25 08:31:42;;;;;;;8.37;4.87;;;;;;;-141.97;67.35;47745.88;5031836;28;20185;-81
2022/12/25 08:34:08;;;;;;;9.47;5.73;;;;;;;-141.97;66.32;47849.69;5032395;28;20265;-82
2022/12/25 08:36:34;;;;;;;7.90;4.83;;;;;;;-141.97;66.18;47793.94;5031237;28;20665;-82
2022/12/25 08:38:59;;;;;;;6.33;4.23;;;;;;;-141.97;65.61;47834.31;5031421;28;20319;-83
2022/12/25 08:41:25;;;;;;;10.90;5.27;;;;;;;-141.97;65.11;47699.75;5007810;28;20630;-83
2022/12/25 08:43:51;;;;;;;9.23;4.60;;;;;;;-141.97;64.55;47830.47;5031015;28;20278;-82
2022/12/25 08:46:16;;;;;;;10.20;6.07;;;;;;;-141.97;64.51;47799.72;5030846;28;20249;-82
2022/12/25 08:48:43;;;;;;;10.07;5.27;;;;;;;-141.97;63.54;47811.25;5012259;28;20607;-82
2022/12/25 08:51:16;;;;;;;16.10;8.60;;;;;;;-141.97;61.99;47793.94;5028320;28;20324;-82
2022/12/25 08:53:43;;;;;;;9.33;4.97;;;;;;;-141.97;62.52;47851.59;5028120;28;20173;-82
2022/12/25 08:56:08;;;;;;;6.70;4.03;;;;;;;-141.97;62.16;47830.47;5010900;28;20187;-83
2022/12/25 08:58:33;;;;;;;5.17;3.20;;;;;;;-141.97;62.14;47611.34;5010214;28;20237;-81
2022/12/25 09:00:59;;;;;;;7.50;4.00;;;;;;;-141.97;62.03;47749.72;5012207;28;20205;-84
2022/12/25 09:03:25;;;;;;;14.57;6.43;;;;;;;-141.97;61.39;47784.34;5031341;28;20185;-82
2022/12/25 09:05:52;;;;;;;17.13;7.57;;;;;;;-141.97;61.04;47813.16;5015999;28;20174;-82
2022/12/25 09:08:18;;;;;;;16.50;7.03;;;;;;;-141.97;61.16;47805.47;5031380;28;20185;-81
2022/12/25 09:10:43;;;;;;;14.43;6.40;;;;;;;-141.97;60.73;47793.94;5031906;28;20212;-82
2022/12/25 09:13:09;;;;;;;8.53;4.57;;;;;;;-141.97;60.16;47782.41;5031641;28;20189;-82
2022/12/25 09:15:37;;;;;;;11.07;5.40;;;;;;;-141.97;60.03;47778.56;5031887;28;20166;-83
2022/12/25 09:18:02;;;;;;;9.83;4.70;;;;;;;-141.97;59.83;47792.03;5031119;28;20188;-83
2022/12/25 09:20:28;;;;;;;4.83;2.90;;;;;;;-141.97;59.82;47795.88;5031176;28;20166;-82
2022/12/25 09:22:53;;;;;;;6.90;3.90;;;;;;;-141.97;59.31;47811.25;5046748;28;20265;-82
2022/12/25 09:25:19;;;;;;;6.63;3.97;;;;;;;-141.97;58.76;47768.94;5031521;28;20165;-81
2022/12/25 09:27:44;;;;;;;12.63;6.77;;;;;;;-141.97;58.92;47790.09;5031427;28;20733;-81
2022/12/25 09:30:10;;;;;;;14.10;8.20;;;;;;;-141.97;58.44;47772.78;5031031;28;20194;-82
2022/12/25 09:32:35;;;;;;;8.40;4.23;;;;;;;-141.97;56.67;47740.13;5031254;28;20248;-83
2022/12/25 09:35:01;;;;;;;9.37;5.17;;;;;;;-141.97;55.80;47851.59;5030793;28;20169;-83
2022/12/25 09:37:27;;;;;;;7.43;4.40;;;;;;;-141.97;55.78;47853.53;5030803;28;20218;-82
2022/12/25 09:39:53;;;;;;;6.33;3.67;;;;;;;-141.97;56.04;47763.19;5030681;28;20221;-81
2022/12/25 09:42:23;;;;;;;9.03;5.50;;;;;;;-141.97;55.75;47795.88;5030764;28;20293;-81
2022/12/25 09:44:55;;;;;;;11.87;5.00;;;;;;;-141.97;55.35;47747.81;5031145;28;20169;-81
2022/12/25 09:47:28;;;;;;;10.00;4.27;;;;;;;-141.97;56.04;47915.03;5030733;28;20166;-81
2022/12/25 09:50:12;;;;;;;10.33;4.77;;;;;;;-141.97;55.75;47826.63;5031282;28;20169;-81
2022/12/25 09:52:50;;;;;;;6.70;3.33;;;;;;;-141.97;56.41;47776.63;5030914;28;20470;-81
2022/12/25 09:55:23;;;;;;;7.53;4.20;;;;;;;-141.97;56.22;47753.56;5031191;28;20170;-83
2022/12/25 09:57:54;;;;;;;8.47;4.20;;;;;;;-141.97;56.33;47797.78;5031207;28;20257;-81
2022/12/25 10:00:22;;;;;;;24.07;10.53;;;;;;;-141.97;56.30;47780.47;5030701;28;20273;-81
2022/12/25 10:03:09;;;;;;;18.13;9.23;;;;;;;-141.97;56.21;47749.72;5030863;28;20178;-81
2022/12/25 10:05:35;;;;;;;6.90;4.33;;;;;;;-141.97;55.04;47786.25;5045624;28;20193;-83
2022/12/25 10:08:21;;;;;;;17.80;9.97;;;;;;;-141.97;55.23;47807.41;5030656;28;20189;-81
2022/12/25 10:10:51;;;;;;;11.07;7.07;;;;;;;-141.97;55.61;47776.63;5031010;28;20631;-81
2022/12/25 10:13:22;;;;;;;13.67;7.57;;;;;;;-141.97;55.05;47790.09;5030645;28;20166;-81
2022/12/25 10:15:56;;;;;;;8.90;4.57;;;;;;;-141.97;55.17;47765.09;5031048;28;20167;-82
2022/12/25 10:19:04;;;;;;;10.83;6.40;;;;;;;-141.97;55.20;47788.19;5030488;28;20248;-81
2022/12/25 10:21:30;;;;;;;8.13;5.00;;;;;;;-141.97;54.66;47795.88;5030263;28;20189;-82
2022/12/25 10:24:17;;;;;;;8.57;4.97;;;;;;;-141.97;53.66;47782.41;5030240;28;20170;-82
2022/12/25 10:26:44;;;;;;;15.80;7.97;;;;;;;-141.97;53.18;47734.34;5031049;28;20166;-81
2022/12/25 10:29:15;;;;;;;12.77;8.20;;;;;;;-141.97;53.33;47767.03;5031278;28;20228;-82
2022/12/25 10:31:44;;;;;;;10.80;5.70;;;;;;;-141.97;52.04;47772.78;5031175;28;20162;-81
2022/12/25 10:34:12;;;;;;;5.53;3.50;;;;;;;-141.97;52.20;47815.09;5014252;28;20170;-82
2022/12/25 10:36:40;;;;;;;12.37;5.30;;;;;;;-141.97;51.82;47880.44;5032723;28;20182;-82
2022/12/25 10:39:05;;;;;;;7.10;4.30;;;;;;;-141.97;50.58;47742.03;5032923;28;20621;-82
2022/12/25 10:41:40;;;;;;;6.13;3.53;;;;;;;-141.97;51.22;47788.19;5032207;28;20193;-81
2022/12/25 10:44:18;;;;;;;10.87;6.07;;;;;;;-141.97;51.97;47757.41;5035043;28;20170;-81
2022/12/25 10:46:51;;;;;;;6.93;3.20;;;;;;;-141.97;51.37;47790.09;5035336;28;20233;-81
2022/12/25 10:49:19;;;;;;;4.97;2.83;;;;;;;-141.97;50.57;47793.94;5034535;28;20173;-82
2022/12/25 10:51:45;;;;;;;6.60;4.20;;;;;;;-141.97;50.69;47763.19;5016562;28;20268;-81
2022/12/25 10:54:27;;;;;;;9.40;5.10;;;;;;;-141.97;49.89;47770.88;5036652;28;20162;-81
2022/12/25 10:57:01;;;;;;;8.73;4.57;;;;;;;-141.97;49.03;47788.19;5034393;28;20249;-82
2022/12/25 10:59:29;;;;;;;10.30;5.90;;;;;;;-141.97;49.77;47747.81;5046947;28;20265;-83
2022/12/25 11:02:02;;;;;;;15.40;8.83;;;;;;;-141.97;48.66;47724.75;5074442;28;20202;-83
2022/12/25 11:04:28;;;;;;;33.87;16.27;;;;;;;-141.97;47.69;47759.34;5013647;28;20567;-83
2022/12/25 11:07:00;;;;;;;17.43;8.90;;;;;;;-141.97;46.67;47745.88;5053405;28;20177;-85
2022/12/25 11:09:26;;;;;;;17.77;8.60;;;;;;;-141.97;46.59;47849.69;5036802;28;20169;-84
2022/12/25 11:11:51;;;;;;;35.97;22.00;;;;;;;-141.97;47.05;47780.47;5026797;28;20166;-83
2022/12/25 11:14:19;;;;;;;13.80;7.80;;;;;;;-141.97;46.95;47768.94;5042468;28;20197;-83
2022/12/25 11:16:45;;;;;;;10.47;5.43;;;;;;;-141.97;46.40;47742.03;5038732;28;20174;-83
2022/12/25 11:19:30;;;;;;;30.60;16.63;;;;;;;-141.97;47.11;47736.28;5039201;28;20181;-83
2022/12/25 11:21:59;;;;;;;8.37;4.90;;;;;;;-141.97;46.19;47751.66;5051705;28;20197;-83
2022/12/25 11:24:30;;;;;;;13.13;6.83;;;;;;;-141.97;46.66;47765.09;5018665;28;20167;-83
2022/12/25 11:27:01;;;;;;;16.33;8.93;;;;;;;-141.97;46.56;47761.25;5027452;28;20223;-81
2022/12/25 11:29:45;;;;;;;15.73;8.93;;;;;;;-141.97;45.67;47742.03;5037481;28;20175;-82
2022/12/25 11:32:18;;;;;;;4.87;3.83;;;;;;;-141.97;46.07;47792.03;5033071;28;20174;-83
2022/12/25 11:34:46;;;;;;;10.63;5.10;;;;;;;-141.97;45.69;47701.69;5036086;28;20170;-82
2022/12/25 11:37:38;;;;;;;6.07;3.70;;;;;;;-141.97;45.61;47732.44;5029773;28;20237;-83
2022/12/25 11:40:05;;;;;;;11.83;6.80;;;;;;;-141.97;45.61;47686.31;5014380;28;20202;-83
2022/12/25 11:42:33;;;;;;;8.83;6.13;;;;;;;-141.97;45.14;47726.66;5021844;28;20222;-84
2022/12/25 11:45:09;;;;;;;9.27;5.73;;;;;;;-141.97;45.69;47784.34;4994014;28;20227;-83
2022/12/25 11:47:53;;;;;;;20.83;9.97;;;;;;;-141.97;45.11;47780.47;4996605;28;20202;-83
2022/12/25 11:50:27;;;;;;;16.23;8.40;;;;;;;-141.97;46.12;47761.25;4998374;28;20233;-82
2022/12/25 11:52:54;;;;;;;15.80;8.83;;;;;;;-141.97;46.39;47797.78;5012914;28;20178;-83
2022/12/25 11:56:01;;;;;;;13.73;7.10;;;;;;;-141.97;45.61;47745.88;5013158;28;20237;-84
2022/12/25 11:58:48;;;;;;;18.30;10.10;;;;;;;-141.97;46.21;47761.25;4940011;29;20192;-83
2022/12/25 12:01:23;;;;;;;8.57;5.23;;;;;;;-141.97;46.45;47778.56;4952327;29;20203;-83
2022/12/25 12:03:48;;;;;;;19.37;8.83;;;;;;;-141.97;46.63;47792.03;4952171;29;20259;-83
2022/12/25 12:06:19;;;;;;;8.87;4.93;;;;;;;-141.97;46.42;47742.03;4952955;29;20235;-82
2022/12/25 12:08:47;;;;;;;11.77;8.07;;;;;;;-141.97;46.67;47757.41;4955345;28;20263;-82
2022/12/25 12:11:22;;;;;;;13.57;7.90;;;;;;;-141.97;46.48;47732.44;4958957;29;20185;-83
2022/12/25 12:13:47;;;;;;;8.17;4.70;;;;;;;-141.97;45.94;47790.09;4952398;29;20282;-82
2022/12/25 12:16:12;;;;;;;11.83;6.63;;;;;;;-141.97;46.47;47745.88;4954964;28;20192;-83
2022/12/25 12:18:38;;;;;;;9.33;5.97;;;;;;;-141.97;46.75;47749.72;4972092;28;20179;-82
2022/12/25 12:21:17;;;;;;;14.30;8.20;;;;;;;-141.97;47.14;47776.63;4972279;28;20202;-82
2022/12/25 12:23:48;;;;;;;11.73;7.47;;;;;;;-141.97;47.40;47772.78;4971306;28;20282;-82
2022/12/25 12:26:24;;;;;;;17.37;9.43;;;;;;;-141.97;46.30;47765.09;4970942;28;20185;-83
2022/12/25 12:28:52;;;;;;;17.40;9.40;;;;;;;-141.97;46.45;47770.88;4970883;28;20609;-82
2022/12/25 12:31:18;;;;;;;13.23;8.57;;;;;;;-141.97;45.98;47738.19;4970179;28;20172;-82
2022/12/25 12:33:48;;;;;;;15.33;8.73;;;;;;;-141.97;45.61;47703.59;4970441;28;20267;-82
2022/12/25 12:36:15;;;;;;;10.30;6.73;;;;;;;-141.97;45.91;47778.56;5021157;28;20583;-81
2022/12/25 12:38:42;;;;;;;8.73;5.93;;;;;;;-141.97;46.43;47743.97;5032899;28;20343;-84
2022/12/25 12:41:10;;;;;;;6.37;4.10;;;;;;;-141.97;45.65;47740.13;5034312;28;20209;-83
2022/12/25 12:43:44;;;;;;;5.97;4.47;;;;;;;-141.97;45.90;47786.25;5032210;28;20166;-83
2022/12/25 12:46:48;;;;;;;8.47;6.03;;;;;;;-141.97;46.17;47840.06;5031646;28;20166;-83
2022/12/25 12:49:21;;;;;;;10.40;8.13;;;;;;;-141.97;46.14;47753.56;5033220;28;20166;-83
2022/12/25 12:51:47;;;;;;;8.20;5.50;;;;;;;-141.97;46.21;47734.34;5032867;28;20150;-82
2022/12/25 12:54:24;;;;;;;7.27;5.63;;;;;;;-141.97;46.51;47778.56;5032126;28;20220;-82
2022/12/25 12:56:59;;;;;;;10.40;6.60;;;;;;;-141.97;46.42;47734.34;5030517;28;20169;-82
2022/12/25 12:59:31;;;;;;;8.10;4.20;;;;;;;-141.97;46.45;47842.00;5013907;28;20443;-82
2022/12/25 13:02:17;;;;;;;13.77;8.50;;;;;;;-141.97;46.78;47788.19;5031451;28;20232;-84
2022/12/25 13:04:53;;;;;;;18.90;9.63;;;;;;;-141.97;46.82;47763.19;4951126;28;20192;-82